Time;durP1;ratioP1;P1;durP2;ratioP2;P2;SDS_P1;SDS_P2;PMS_P1;PMS_P2;Temp;Humidity;BMP_temperature;BMP_pressure;BME280_temperature;BME280_humidity;BME280_pressure;Samples;Min_cycle;Max_cycle;Signal;HPM_P1;HPM_P2
2023/07/12 00:02:01;;;;;;;;;;;;;;;;;;5030615;28;19932;-67
2023/07/12 00:04:28;;;;;;;;;;;;;;;;;;5031327;28;19932;-66
2023/07/12 00:06:54;;;;;;;;;;;;;;;;;;5028939;28;19925;-67
2023/07/12 00:09:22;;;;;;;;;;;;;;;;;;5030590;28;20008;-65
2023/07/12 00:11:48;;;;;;;;;;;;;;;;;;5030192;28;19925;-67
2023/07/12 00:14:15;;;;;;;;;;;;;;;;;;5030910;28;19932;-65
2023/07/12 00:16:42;;;;;;;;;;;;;;;;;;5030696;28;19929;-65
2023/07/12 00:19:13;;;;;;;;;;;;;;;;;;5030631;28;20385;-65
2023/07/12 00:21:39;;;;;;;;;;;;;;;;;;5030488;28;19925;-64
2023/07/12 00:24:06;;;;;;;;;;;;;;;;;;5030368;28;19932;-66
2023/07/12 00:26:35;;;;;;;;;;;;;;;;;;5030483;28;19932;-66
2023/07/12 00:29:02;;;;;;;;;;;;;;;;;;5030261;28;19935;-67
2023/07/12 00:31:29;;;;;;;;;;;;;;;;;;5030703;28;19925;-66
2023/07/12 00:33:56;;;;;;;;;;;;;;;;;;5030188;28;20416;-66
2023/07/12 00:36:25;;;;;;;;;;;;;;;;;;5030545;28;19925;-65
2023/07/12 00:38:52;;;;;;;;;;;;;;;;;;5030176;28;19935;-66
2023/07/12 00:41:20;;;;;;;;;;;;;;;;;;5029361;28;19925;-66
2023/07/12 00:43:52;;;;;;;;;;;;;;;;;;5030150;28;19932;-66
2023/07/12 00:46:20;;;;;;;;;;;;;;;;;;5030823;28;19925;-67
2023/07/12 00:48:47;;;;;;;;;;;;;;;;;;5030004;28;20004;-65
2023/07/12 00:51:33;;;;;;;;;;;;;;;;;;5030241;28;20180;-66
2023/07/12 00:53:59;;;;;;;;;;;;;;;;;;5030600;28;20371;-66
2023/07/12 00:56:27;;;;;;;;;;;;;;;;;;5030332;28;20391;-67
2023/07/12 00:59:00;;;;;;;;;;;;;;;;;;5030257;28;20020;-66
2023/07/12 01:01:27;;;;;;;;;;;;;;;;;;5029726;28;20043;-66
2023/07/12 01:03:55;;;;;;;;;;;;;;;;;;5030391;28;20299;-66
2023/07/12 01:06:22;;;;;;;;;;;;;;;;;;5029985;28;19936;-67
2023/07/12 01:08:48;;;;;;;;;;;;;;;;;;5029345;28;19931;-66
2023/07/12 01:11:16;;;;;;;;;;;;;;;;;;5029542;28;19929;-66
2023/07/12 01:13:43;;;;;;;;;;;;;;;;;;5030063;28;19925;-65
2023/07/12 01:16:11;;;;;;;;;;;;;;;;;;5029571;28;19925;-66
2023/07/12 01:18:38;;;;;;;;;;;;;;;;;;5030064;28;19931;-65
2023/07/12 01:21:06;;;;;;;;;;;;;;;;;;5029391;28;20290;-67
2023/07/12 01:23:32;;;;;;;;;;;;;;;;;;5030158;28;20019;-67
2023/07/12 01:26:14;;;;;;;;;;;;;;;;;;5029547;28;20179;-67
2023/07/12 01:28:40;;;;;;;;;;;;;;;;;;5030288;28;20019;-66
2023/07/12 01:31:07;;;;;;;;;;;;;;;;;;5029606;28;20000;-66
2023/07/12 01:33:33;;;;;;;;;;;;;;;;;;5030359;28;20301;-65
2023/07/12 01:36:00;;;;;;;;;;;;;;;;;;5030202;28;20093;-67
2023/07/12 01:38:27;;;;;;;;;;;;;;;;;;5029147;28;19925;-66
2023/07/12 01:40:54;;;;;;;;;;;;;;;;;;5033689;28;19933;-66
2023/07/12 01:43:20;;;;;;;;;;;;;;;;;;5033450;28;20425;-66
2023/07/12 01:45:46;;;;;;;;;;;;;;;;;;5033541;28;19929;-67
2023/07/12 01:48:13;;;;;;;;;;;;;;;;;;5033259;28;19936;-67
2023/07/12 01:50:41;;;;;;;;;;;;;;;;;;5033050;28;19925;-66
2023/07/12 01:53:08;;;;;;;;;;;;;;;;;;5033202;28;19993;-66
2023/07/12 01:55:35;;;;;;;;;;;;;;;;;;5034091;28;19931;-66
2023/07/12 01:58:02;;;;;;;;;;;;;;;;;;5033248;28;19937;-65
2023/07/12 02:00:28;;;;;;;;;;;;;;;;;;5033129;28;19936;-66
2023/07/12 02:02:54;;;;;;;;;;;;;;;;;;5033535;28;19925;-66
2023/07/12 02:05:21;;;;;;;;;;;;;;;;;;5033061;28;19926;-67
2023/07/12 02:07:48;;;;;;;;;;;;;;;;;;5033076;28;19925;-65
2023/07/12 02:10:16;;;;;;;;;;;;;;;;;;5031737;28;19968;-65
2023/07/12 02:12:44;;;;;;;;;;;;;;;;;;5032980;28;19932;-66
2023/07/12 02:15:11;;;;;;;;;;;;;;;;;;5032453;28;19971;-66
2023/07/12 02:17:38;;;;;;;;;;;;;;;;;;5032939;28;20159;-66
2023/07/12 02:20:05;;;;;;;;;;;;;;;;;;5032435;28;19931;-66
2023/07/12 02:22:33;;;;;;;;;;;;;;;;;;5032870;28;19929;-67
2023/07/12 02:24:59;;;;;;;;;;;;;;;;;;5032784;28;19931;-67
2023/07/12 02:27:26;;;;;;;;;;;;;;;;;;5032809;28;20023;-66
2023/07/12 02:29:54;;;;;;;;;;;;;;;;;;5032569;28;19935;-66
2023/07/12 02:32:22;;;;;;;;;;;;;;;;;;5032774;28;19925;-66
2023/07/12 02:34:49;;;;;;;;;;;;;;;;;;5032616;28;19979;-66
2023/07/12 02:37:15;;;;;;;;;;;;;;;;;;5031573;28;20383;-66
2023/07/12 02:39:41;;;;;;;;;;;;;;;;;;5032526;28;20020;-66
2023/07/12 02:42:08;;;;;;;;;;;;;;;;;;5032188;28;20413;-65
2023/07/12 02:44:34;;;;;;;;;;;;;;;;;;5032456;28;19971;-66
2023/07/12 02:47:02;;;;;;;;;;;;;;;;;;5031853;28;19925;-67
2023/07/12 02:49:28;;;;;;;;;;;;;;;;;;5031663;28;19925;-65
2023/07/12 02:51:55;;;;;;;;;;;;;;;;;;5031082;28;19931;-66
2023/07/12 02:54:21;;;;;;;;;;;;;;;;;;5032436;28;19932;-67
2023/07/12 02:56:47;;;;;;;;;;;;;;;;;;5031894;28;20073;-66
2023/07/12 02:59:14;;;;;;;;;;;;;;;;;;5032392;28;19932;-64
2023/07/12 03:01:40;;;;;;;;;;;;;;;;;;5032010;28;19932;-66
2023/07/12 03:04:08;;;;;;;;;;;;;;;;;;5031613;28;19925;-66
2023/07/12 03:06:34;;;;;;;;;;;;;;;;;;5032381;28;19925;-67
2023/07/12 03:09:01;;;;;;;;;;;;;;;;;;5016219;28;19932;-65
2023/07/12 03:11:27;;;;;;;;;;;;;;;;;;5012108;28;19926;-67
2023/07/12 03:13:54;;;;;;;;;;;;;;;;;;5011894;28;19933;-66
2023/07/12 03:16:20;;;;;;;;;;;;;;;;;;5012038;28;19925;-65
2023/07/12 03:18:46;;;;;;;;;;;;;;;;;;5011716;28;19926;-66
2023/07/12 03:21:14;;;;;;;;;;;;;;;;;;5011958;28;20298;-66
2023/07/12 03:23:41;;;;;;;;;;;;;;;;;;5011768;28;19925;-66
2023/07/12 03:26:07;;;;;;;;;;;;;;;;;;5012234;28;19932;-64
2023/07/12 03:28:33;;;;;;;;;;;;;;;;;;5011540;28;20119;-67
2023/07/12 03:31:01;;;;;;;;;;;;;;;;;;5011478;28;20371;-66
2023/07/12 03:33:27;;;;;;;;;;;;;;;;;;5011059;28;19926;-66
2023/07/12 03:35:54;;;;;;;;;;;;;;;;;;5028817;28;19925;-66
2023/07/12 03:38:24;;;;;;;;;;;;;;;;;;5031256;28;19944;-66
2023/07/12 03:40:51;;;;;;;;;;;;;;;;;;5030599;28;20383;-65
2023/07/12 03:43:17;;;;;;;;;;;;;;;;;;5031224;28;20264;-66
2023/07/12 03:45:44;;;;;;;;;;;;;;;;;;5059264;22;20012;-66
2023/07/12 03:48:11;;;;;;;;;;;;;;;;;;5052094;28;19925;-66
2023/07/12 03:50:38;;;;;;;;;;;;;;;;;;5051189;28;19933;-66
2023/07/12 03:53:05;;;;;;;;;;;;;;;;;;5051849;28;20401;-66
2023/07/12 03:55:32;;;;;;;;;;;;;;;;;;5050553;28;20019;-67
2023/07/12 03:57:59;;;;;;;;;;;;;;;;;;5050804;28;20293;-66
2023/07/12 04:00:25;;;;;;;;;;;;;;;;;;5049924;28;19948;-66
2023/07/12 04:02:51;;;;;;;;;;;;;;;;;;5050756;28;19924;-66
2023/07/12 04:05:18;;;;;;;;;;;;;;;;;;5050377;28;19925;-66
2023/07/12 04:07:44;;;;;;;;;;;;;;;;;;5051137;28;19924;-66
2023/07/12 04:10:10;;;;;;;;;;;;;;;;;;5049212;28;20297;-66
2023/07/12 04:12:39;;;;;;;;;;;;;;;;;;5050296;28;19929;-66
2023/07/12 04:15:06;;;;;;;;;;;;;;;;;;5050483;28;20372;-66
2023/07/12 04:17:33;;;;;;;;;;;;;;;;;;5050169;28;19926;-66
2023/07/12 04:19:59;;;;;;;;;;;;;;;;;;5050355;28;19925;-66
2023/07/12 04:22:26;;;;;;;;;;;;;;;;;;5050208;28;19924;-66
2023/07/12 04:24:53;;;;;;;;;;;;;;;;;;5050575;28;19941;-65
2023/07/12 04:27:19;;;;;;;;;;;;;;;;;;5049954;28;19929;-66
2023/07/12 04:29:47;;;;;;;;;;;;;;;;;;5050031;28;20008;-66
2023/07/12 04:32:14;;;;;;;;;;;;;;;;;;5049822;28;19925;-66
2023/07/12 04:34:40;;;;;;;;;;;;;;;;;;5050344;28;20336;-66
2023/07/12 04:37:07;;;;;;;;;;;;;;;;;;5049801;28;19924;-66
2023/07/12 04:39:34;;;;;;;;;;;;;;;;;;5049825;28;19925;-66
2023/07/12 04:42:00;;;;;;;;;;;;;;;;;;5050055;28;19931;-66
2023/07/12 04:44:26;;;;;;;;;;;;;;;;;;5050116;28;20323;-67
2023/07/12 04:46:55;;;;;;;;;;;;;;;;;;5050167;28;19924;-66
2023/07/12 04:49:21;;;;;;;;;;;;;;;;;;5049787;28;19929;-65
2023/07/12 04:51:49;;;;;;;;;;;;;;;;;;5049857;28;19944;-66
2023/07/12 04:54:15;;;;;;;;;;;;;;;;;;5049767;28;19925;-66
2023/07/12 04:56:42;;;;;;;;;;;;;;;;;;5049945;28;20275;-66
2023/07/12 04:59:08;;;;;;;;;;;;;;;;;;5049898;28;19925;-66
2023/07/12 05:01:34;;;;;;;;;;;;;;;;;;5049614;28;19925;-66
2023/07/12 05:04:02;;;;;;;;;;;;;;;;;;5049855;28;19964;-66
2023/07/12 05:06:29;;;;;;;;;;;;;;;;;;5048822;28;19932;-66
2023/07/12 05:08:55;;;;;;;;;;;;;;;;;;5049793;28;20382;-66
2023/07/12 05:11:22;;;;;;;;;;;;;;;;;;5049822;28;19979;-66
2023/07/12 05:13:48;;;;;;;;;;;;;;;;;;5051549;28;19931;-66
2023/07/12 05:16:15;;;;;;;;;;;;;;;;;;5053683;28;19924;-66
2023/07/12 05:18:41;;;;;;;;;;;;;;;;;;5053859;28;19925;-66
2023/07/12 05:21:09;;;;;;;;;;;;;;;;;;5053103;28;20382;-66
2023/07/12 05:23:36;;;;;;;;;;;;;;;;;;5053571;28;19935;-66
2023/07/12 05:26:03;;;;;;;;;;;;;;;;;;5053605;28;20271;-66
2023/07/12 05:28:29;;;;;;;;;;;;;;;;;;5053572;28;19931;-66
2023/07/12 05:30:56;;;;;;;;;;;;;;;;;;5052994;28;20408;-66
2023/07/12 05:33:22;;;;;;;;;;;;;;;;;;5046928;28;19925;-67
2023/07/12 05:35:48;;;;;;;;;;;;;;;;;;5033270;28;19932;-66
2023/07/12 05:38:17;;;;;;;;;;;;;;;;;;5033135;28;19925;-66
2023/07/12 05:40:43;;;;;;;;;;;;;;;;;;5033135;28;20020;-66
2023/07/12 05:43:10;;;;;;;;;;;;;;;;;;5033106;28;19931;-66
2023/07/12 05:45:36;;;;;;;;;;;;;;;;;;5033516;28;20736;-66
2023/07/12 05:48:03;;;;;;;;;;;;;;;;;;5032851;28;19925;-66
2023/07/12 05:50:29;;;;;;;;;;;;;;;;;;5032856;28;20293;-66
2023/07/12 05:52:55;;;;;;;;;;;;;;;;;;5033127;28;20108;-66
2023/07/12 05:55:23;;;;;;;;;;;;;;;;;;5033400;28;19925;-66
2023/07/12 05:57:50;;;;;;;;;;;;;;;;;;5033056;28;20298;-66
2023/07/12 06:00:17;;;;;;;;;;;;;;;;;;5033219;28;19925;-66
2023/07/12 06:02:44;;;;;;;;;;;;;;;;;;5032826;28;19925;-66
2023/07/12 06:05:11;;;;;;;;;;;;;;;;;;5033044;28;19971;-67
2023/07/12 06:07:37;;;;;;;;;;;;;;;;;;5032529;28;20596;-67
2023/07/12 06:10:04;;;;;;;;;;;;;;;;;;5046017;28;19982;-66
2023/07/12 06:12:31;;;;;;;;;;;;;;;;;;5052658;28;20070;-66
2023/07/12 06:14:58;;;;;;;;;;;;;;;;;;5052865;28;19929;-66
2023/07/12 06:17:24;;;;;;;;;;;;;;;;;;5053607;28;20394;-66
2023/07/12 06:19:50;;;;;;;;;;;;;;;;;;5052026;28;19931;-67
2023/07/12 06:22:17;;;;;;;;;;;;;;;;;;5053061;28;19929;-66
2023/07/12 06:24:43;;;;;;;;;;;;;;;;;;5052111;28;20338;-66
2023/07/12 06:27:10;;;;;;;;;;;;;;;;;;5052704;28;19924;-66
2023/07/12 06:29:37;;;;;;;;;;;;;;;;;;5051560;28;19925;-66
2023/07/12 06:32:04;;;;;;;;;;;;;;;;;;5049607;28;20012;-66
2023/07/12 06:34:31;;;;;;;;;;;;;;;;;;5051189;28;19924;-66
2023/07/12 06:36:57;;;;;;;;;;;;;;;;;;5052107;28;20432;-67
2023/07/12 06:39:23;;;;;;;;;;;;;;;;;;5051839;28;19925;-66
2023/07/12 06:41:57;;;;;;;;;;;;;;;;;;5051848;28;20015;-66
2023/07/12 06:44:23;;;;;;;;;;;;;;;;;;5051249;28;20429;-66
2023/07/12 06:46:51;;;;;;;;;;;;;;;;;;5051389;28;19929;-66
2023/07/12 06:49:17;;;;;;;;;;;;;;;;;;5050398;28;20406;-67
2023/07/12 06:51:46;;;;;;;;;;;;;;;;;;5051193;28;19936;-66
2023/07/12 06:54:12;;;;;;;;;;;;;;;;;;5051889;28;19924;-66
2023/07/12 06:56:39;;;;;;;;;;;;;;;;;;5051654;28;19935;-66
2023/07/12 06:59:06;;;;;;;;;;;;;;;;;;5051923;28;19925;-66
2023/07/12 07:01:32;;;;;;;;;;;;;;;;;;5051215;28;20295;-67
2023/07/12 07:04:00;;;;;;;;;;;;;;;;;;5051089;28;19929;-67
2023/07/12 07:06:27;;;;;;;;;;;;;;;;;;5046806;28;20366;-67
2023/07/12 07:08:53;;;;;;;;;;;;;;;;;;5047358;28;19925;-67
2023/07/12 07:11:19;;;;;;;;;;;;;;;;;;5047134;28;20121;-68
2023/07/12 07:13:47;;;;;;;;;;;;;;;;;;5049478;28;20019;-68
2023/07/12 07:16:14;;;;;;;;;;;;;;;;;;5050930;28;19928;-67
2023/07/12 07:18:40;;;;;;;;;;;;;;;;;;5048370;28;19956;-68
2023/07/12 07:21:08;;;;;;;;;;;;;;;;;;5047760;28;19931;-68
2023/07/12 07:23:35;;;;;;;;;;;;;;;;;;5050835;28;19970;-68
2023/07/12 07:26:01;;;;;;;;;;;;;;;;;;5050544;28;20008;-68
2023/07/12 07:28:28;;;;;;;;;;;;;;;;;;5047219;28;19924;-67
2023/07/12 07:30:55;;;;;;;;;;;;;;;;;;5047879;28;19935;-67
2023/07/12 07:33:22;;;;;;;;;;;;;;;;;;5048228;28;19925;-67
2023/07/12 07:35:48;;;;;;;;;;;;;;;;;;5048581;28;19924;-67
2023/07/12 07:38:16;;;;;;;;;;;;;;;;;;5048012;28;19925;-67
2023/07/12 07:40:43;;;;;;;;;;;;;;;;;;5048095;28;19925;-67
2023/07/12 07:43:09;;;;;;;;;;;;;;;;;;5049722;28;19929;-67
2023/07/12 07:45:36;;;;;;;;;;;;;;;;;;5049651;28;20007;-67
2023/07/12 07:48:02;;;;;;;;;;;;;;;;;;5048421;28;19947;-67
2023/07/12 07:50:31;;;;;;;;;;;;;;;;;;5048223;28;20394;-68
2023/07/12 07:52:57;;;;;;;;;;;;;;;;;;5047330;28;19931;-67
2023/07/12 07:55:26;;;;;;;;;;;;;;;;;;5047689;28;19925;-67
2023/07/12 07:57:52;;;;;;;;;;;;;;;;;;5047117;28;19933;-67
2023/07/12 08:00:19;;;;;;;;;;;;;;;;;;5049330;28;20011;-67
2023/07/12 08:02:46;;;;;;;;;;;;;;;;;;5047900;28;20016;-68
2023/07/12 08:05:14;;;;;;;;;;;;;;;;;;5048086;28;19960;-67
2023/07/12 08:07:41;;;;;;;;;;;;;;;;;;5042929;28;20389;-67
2023/07/12 08:10:09;;;;;;;;;;;;;;;;;;5053796;28;20274;-67
2023/07/12 08:12:37;;;;;;;;;;;;;;;;;;5049701;28;19971;-66
2023/07/12 08:15:04;;;;;;;;;;;;;;;;;;5049311;28;19925;-67
2023/07/12 08:17:31;;;;;;;;;;;;;;;;;;5045150;28;19925;-67
2023/07/12 08:19:57;;;;;;;;;;;;;;;;;;5048736;28;19925;-67
2023/07/12 08:22:24;;;;;;;;;;;;;;;;;;5049770;28;19924;-67
2023/07/12 08:24:50;;;;;;;;;;;;;;;;;;5049413;28;20405;-67
2023/07/12 08:27:17;;;;;;;;;;;;;;;;;;5049994;28;19939;-67
2023/07/12 08:29:45;;;;;;;;;;;;;;;;;;5048431;28;19968;-67
2023/07/12 08:32:11;;;;;;;;;;;;;;;;;;5043409;28;20073;-67
2023/07/12 08:34:38;;;;;;;;;;;;;;;;;;5048364;28;19925;-67
2023/07/12 08:37:05;;;;;;;;;;;;;;;;;;5044128;28;19955;-68
2023/07/12 08:39:31;;;;;;;;;;;;;;;;;;5046898;28;19925;-67
2023/07/12 08:41:58;;;;;;;;;;;;;;;;;;5048951;28;20176;-67
2023/07/12 08:44:25;;;;;;;;;;;;;;;;;;5049114;28;19924;-68
2023/07/12 08:46:54;;;;;;;;;;;;;;;;;;5049517;28;19931;-67
2023/07/12 08:49:23;;;;;;;;;;;;;;;;;;5053087;28;20370;-68
2023/07/12 08:51:50;;;;;;;;;;;;;;;;;;5051739;28;19959;-68
2023/07/12 08:54:21;;;;;;;;;;;;;;;;;;5052691;28;19929;-67
2023/07/12 08:56:48;;;;;;;;;;;;;;;;;;5051277;28;20008;-67
2023/07/12 08:59:16;;;;;;;;;;;;;;;;;;5045805;28;19925;-67
2023/07/12 09:01:43;;;;;;;;;;;;;;;;;;5047725;28;19931;-67
2023/07/12 09:04:31;;;;;;;;;;;;;;;;;;5048926;28;19939;-67
2023/07/12 09:07:01;;;;;;;;;;;;;;;;;;5041395;28;19929;-67
2023/07/12 09:09:27;;;;;;;;;;;;;;;;;;5053415;28;19925;-67
2023/07/12 09:11:54;;;;;;;;;;;;;;;;;;5052821;28;19931;-67
2023/07/12 09:14:21;;;;;;;;;;;;;;;;;;5051907;28;19924;-67
2023/07/12 09:16:49;;;;;;;;;;;;;;;;;;5052814;28;19925;-67
2023/07/12 09:19:16;;;;;;;;;;;;;;;;;;5047742;28;19929;-67
2023/07/12 09:21:47;;;;;;;;;;;;;;;;;;5046027;28;19964;-67
2023/07/12 09:24:15;;;;;;;;;;;;;;;;;;5043218;28;20271;-67
2023/07/12 09:26:42;;;;;;;;;;;;;;;;;;5043569;28;19925;-67
2023/07/12 09:29:12;;;;;;;;;;;;;;;;;;5046169;28;20345;-67
2023/07/12 09:31:40;;;;;;;;;;;;;;;;;;5047983;28;19931;-68
2023/07/12 09:34:14;;;;;;;;;;;;;;;;;;5051691;28;19954;-67
2023/07/12 09:36:40;;;;;;;;;;;;;;;;;;5052028;28;20234;-68
2023/07/12 09:39:10;;;;;;;;;;;;;;;;;;5049407;28;20293;-68
2023/07/12 09:41:47;;;;;;;;;;;;;;;;;;5051314;28;19925;-68
2023/07/12 09:44:15;;;;;;;;;;;;;;;;;;5064577;22;20374;-68
2023/07/12 09:46:43;;;;;;;;;;;;;;;;;;5027720;28;19929;-68
2023/07/12 09:49:12;;;;;;;;;;;;;;;;;;5025913;28;19925;-68
2023/07/12 09:51:41;;;;;;;;;;;;;;;;;;5029804;28;19925;-67
2023/07/12 09:54:12;;;;;;;;;;;;;;;;;;5031817;28;20371;-69
2023/07/12 09:56:43;;;;;;;;;;;;;;;;;;5032796;28;19925;-68
2023/07/12 09:59:12;;;;;;;;;;;;;;;;;;5030880;28;19925;-69
2023/07/12 10:01:42;;;;;;;;;;;;;;;;;;5014030;28;20367;-69
2023/07/12 10:04:30;;;;;;;;;;;;;;;;;;5028226;28;20326;-68
2023/07/12 10:06:57;;;;;;;;;;;;;;;;;;5025158;28;19925;-67
2023/07/12 10:09:26;;;;;;;;;;;;;;;;;;5029007;28;20405;-69
2023/07/12 10:11:59;;;;;;;;;;;;;;;;;;5022519;28;19961;-69
2023/07/12 10:14:28;;;;;;;;;;;;;;;;;;5015049;28;19929;-68
2023/07/12 10:16:55;;;;;;;;;;;;;;;;;;5025028;28;19932;-69
2023/07/12 10:19:23;;;;;;;;;;;;;;;;;;5025841;28;19929;-67
2023/07/12 10:21:50;;;;;;;;;;;;;;;;;;5031261;28;19929;-68
2023/07/12 10:24:18;;;;;;;;;;;;;;;;;;5032287;28;19933;-69
2023/07/12 10:26:44;;;;;;;;;;;;;;;;;;5032378;28;19925;-68
2023/07/12 10:29:16;;;;;;;;;;;;;;;;;;5031422;28;19936;-68
2023/07/12 10:31:44;;;;;;;;;;;;;;;;;;5032234;28;19932;-68
2023/07/12 10:34:20;;;;;;;;;;;;;;;;;;5031737;28;20391;-67
2023/07/12 10:36:48;;;;;;;;;;;;;;;;;;5022752;28;19932;-67
2023/07/12 10:39:14;;;;;;;;;;;;;;;;;;5030843;28;19932;-67
2023/07/12 10:41:44;;;;;;;;;;;;;;;;;;5028336;28;19929;-68
2023/07/12 10:44:15;;;;;;;;;;;;;;;;;;5024387;28;20012;-68
2023/07/12 10:46:43;;;;;;;;;;;;;;;;;;5028025;28;19925;-67
2023/07/12 10:49:13;;;;;;;;;;;;;;;;;;5027209;28;19925;-68
2023/07/12 10:51:40;;;;;;;;;;;;;;;;;;5025526;28;19925;-67
2023/07/12 10:54:26;;;;;;;;;;;;;;;;;;5027040;28;19936;-68
2023/07/12 10:56:54;;;;;;;;;;;;;;;;;;5028641;28;20004;-68
2023/07/12 10:59:39;;;;;;;;;;;;;;;;;;5031271;28;19929;-67
2023/07/12 11:02:19;;;;;;;;;;;;;;;;;;5033617;28;19929;-67
2023/07/12 11:04:47;;;;;;;;;;;;;;;;;;5051144;28;19969;-67
2023/07/12 11:07:30;;;;;;;;;;;;;;;;;;5045893;28;20433;-67
2023/07/12 11:10:04;;;;;;;;;;;;;;;;;;5030896;28;19925;-68
2023/07/12 11:12:38;;;;;;;;;;;;;;;;;;5030881;28;19973;-67
2023/07/12 11:15:17;;;;;;;;;;;;;;;;;;5030877;28;20019;-67
2023/07/12 11:17:49;;;;;;;;;;;;;;;;;;5030403;28;19974;-65
2023/07/12 11:20:21;;;;;;;;;;;;;;;;;;5011278;28;19925;-66
2023/07/12 11:22:50;;;;;;;;;;;;;;;;;;5011722;28;19932;-66
2023/07/12 11:25:22;;;;;;;;;;;;;;;;;;5011928;28;20352;-67
2023/07/12 11:27:55;;;;;;;;;;;;;;;;;;5011539;28;20020;-67
2023/07/12 11:30:25;;;;;;;;;;;;;;;;;;5011289;28;19936;-67
2023/07/12 11:33:00;;;;;;;;;;;;;;;;;;5106822;27;20003;-67
2023/07/12 11:35:41;;;;;;;;;;;;;;;;;;5089723;28;19924;-68
2023/07/12 11:38:13;;;;;;;;;;;;;;;;;;5086488;28;19925;-66
2023/07/12 11:40:40;;;;;;;;;;;;;;;;;;5087491;28;19931;-67
2023/07/12 11:43:29;;;;;;;;;;;;;;;;;;5088711;28;19931;-68
2023/07/12 11:45:56;;;;;;;;;;;;;;;;;;5075875;28;19972;-68
2023/07/12 11:48:23;;;;;;;;;;;;;;;;;;5075700;28;19928;-68
2023/07/12 11:50:51;;;;;;;;;;;;;;;;;;5087002;28;19924;-68
2023/07/12 11:53:21;;;;;;;;;;;;;;;;;;5086465;28;19931;-67
2023/07/12 11:55:48;;;;;;;;;;;;;;;;;;5087070;28;19924;-67
2023/07/12 11:58:15;;;;;;;;;;;;;;;;;;5087086;28;19928;-66
2023/07/12 12:00:41;;;;;;;;;;;;;;;;;;5085692;28;20350;-69
2023/07/12 12:03:08;;;;;;;;;;;;;;;;;;5086650;28;19981;-67
2023/07/12 12:05:35;;;;;;;;;;;;;;;;;;5085635;28;19924;-67
2023/07/12 12:08:03;;;;;;;;;;;;;;;;;;5085866;28;19928;-66
2023/07/12 12:10:32;;;;;;;;;;;;;;;;;;5086904;28;19951;-68
2023/07/12 12:12:59;;;;;;;;;;;;;;;;;;5086847;28;19936;-67
2023/07/12 12:15:26;;;;;;;;;;;;;;;;;;5085980;28;19968;-67
2023/07/12 12:17:54;;;;;;;;;;;;;;;;;;5086265;28;19931;-67
2023/07/12 12:20:21;;;;;;;;;;;;;;;;;;5084068;28;19931;-67
2023/07/12 12:22:52;;;;;;;;;;;;;;;;;;5086587;28;19999;-68
2023/07/12 12:25:22;;;;;;;;;;;;;;;;;;5086403;28;19924;-67
2023/07/12 12:27:49;;;;;;;;;;;;;;;;;;5091743;28;20034;-68
2023/07/12 12:30:20;;;;;;;;;;;;;;;;;;5086150;28;19925;-65
2023/07/12 12:32:55;;;;;;;;;;;;;;;;;;5105791;28;20040;-67
2023/07/12 12:35:22;;;;;;;;;;;;;;;;;;5106958;28;20335;-67
2023/07/12 12:37:54;;;;;;;;;;;;;;;;;;5105084;28;19999;-65
2023/07/12 12:40:22;;;;;;;;;;;;;;;;;;5100786;28;19924;-67
2023/07/12 12:42:52;;;;;;;;;;;;;;;;;;5097751;28;19934;-68
2023/07/12 12:45:19;;;;;;;;;;;;;;;;;;5092159;28;19974;-66
2023/07/12 12:47:45;;;;;;;;;;;;;;;;;;5093661;28;20636;-67
2023/07/12 12:50:17;;;;;;;;;;;;;;;;;;5091126;28;20313;-65
2023/07/12 12:52:43;;;;;;;;;;;;;;;;;;5092889;28;19924;-65
2023/07/12 12:55:11;;;;;;;;;;;;;;;;;;5090540;28;20331;-67
2023/07/12 12:57:40;;;;;;;;;;;;;;;;;;5092998;28;19924;-67
2023/07/12 13:00:11;;;;;;;;;;;;;;;;;;5089110;28;19932;-68
2023/07/12 13:02:38;;;;;;;;;;;;;;;;;;5091961;28;19950;-68
2023/07/12 13:05:04;;;;;;;;;;;;;;;;;;5090686;28;19924;-66
2023/07/12 13:07:32;;;;;;;;;;;;;;;;;;5092211;28;19930;-68
2023/07/12 13:10:00;;;;;;;;;;;;;;;;;;5090735;28;19938;-66
2023/07/12 13:12:27;;;;;;;;;;;;;;;;;;5091513;28;20373;-64
2023/07/12 13:14:55;;;;;;;;;;;;;;;;;;5091626;28;20335;-65
2023/07/12 13:17:23;;;;;;;;;;;;;;;;;;5074996;28;20398;-67
2023/07/12 13:19:49;;;;;;;;;;;;;;;;;;5089841;28;19931;-67
2023/07/12 13:22:16;;;;;;;;;;;;;;;;;;5091501;28;19924;-67
2023/07/12 13:24:43;;;;;;;;;;;;;;;;;;5089995;28;19924;-66
2023/07/12 13:27:20;;;;;;;;;;;;;;;;;;5089930;28;19924;-68
2023/07/12 13:29:46;;;;;;;;;;;;;;;;;;5091445;28;19944;-68
2023/07/12 13:32:14;;;;;;;;;;;;;;;;;;5092105;28;19931;-70
2023/07/12 13:34:40;;;;;;;;;;;;;;;;;;5090385;28;19930;-69
2023/07/12 13:37:14;;;;;;;;;;;;;;;;;;5092163;28;19934;-67
2023/07/12 13:39:40;;;;;;;;;;;;;;;;;;5079397;28;19927;-69
2023/07/12 13:42:09;;;;;;;;;;;;;;;;;;5092345;28;19967;-67
2023/07/12 13:44:35;;;;;;;;;;;;;;;;;;5091169;28;19930;-66
2023/07/12 13:47:02;;;;;;;;;;;;;;;;;;5090340;28;20301;-65
2023/07/12 13:49:29;;;;;;;;;;;;;;;;;;5091944;28;19924;-65
2023/07/12 13:51:56;;;;;;;;;;;;;;;;;;5090493;28;19924;-66
2023/07/12 13:54:23;;;;;;;;;;;;;;;;;;5091211;28;20312;-66
2023/07/12 13:56:50;;;;;;;;;;;;;;;;;;5102935;28;19924;-66
2023/07/12 13:59:16;;;;;;;;;;;;;;;;;;5112410;28;19930;-69
2023/07/12 14:01:42;;;;;;;;;;;;;;;;;;5112603;28;20014;-70
2023/07/12 14:04:12;;;;;;;;;;;;;;;;;;5097176;28;19924;-67
2023/07/12 14:06:40;;;;;;;;;;;;;;;;;;5091236;28;19972;-69
2023/07/12 14:09:06;;;;;;;;;;;;;;;;;;5092222;28;19924;-69
2023/07/12 14:11:33;;;;;;;;;;;;;;;;;;5091747;28;20027;-67
2023/07/12 14:14:00;;;;;;;;;;;;;;;;;;5092827;28;19930;-66
2023/07/12 14:16:27;;;;;;;;;;;;;;;;;;5091346;28;20006;-67
2023/07/12 14:18:53;;;;;;;;;;;;;;;;;;5091741;28;19930;-67
2023/07/12 14:21:21;;;;;;;;;;;;;;;;;;5089880;28;19930;-69
2023/07/12 14:23:49;;;;;;;;;;;;;;;;;;5104628;28;19975;-69
2023/07/12 14:26:17;;;;;;;;;;;;;;;;;;5112049;28;19930;-68
2023/07/12 14:28:44;;;;;;;;;;;;;;;;;;5112151;28;20369;-69
2023/07/12 14:31:12;;;;;;;;;;;;;;;;;;5112118;28;20280;-66
2023/07/12 14:33:39;;;;;;;;;;;;;;;;;;5111766;28;19924;-67
2023/07/12 14:36:06;;;;;;;;;;;;;;;;;;5105699;28;20450;-66
2023/07/12 14:38:33;;;;;;;;;;;;;;;;;;5090612;28;20465;-68
2023/07/12 14:41:02;;;;;;;;;;;;;;;;;;5091151;28;19971;-67
2023/07/12 14:43:29;;;;;;;;;;;;;;;;;;5090399;28;20002;-68
2023/07/12 14:45:55;;;;;;;;;;;;;;;;;;5091158;28;19924;-68
2023/07/12 14:48:21;;;;;;;;;;;;;;;;;;5091311;28;20304;-68
2023/07/12 14:50:48;;;;;;;;;;;;;;;;;;5091225;28;20007;-68
2023/07/12 14:53:21;;;;;;;;;;;;;;;;;;5091429;28;20297;-69
2023/07/12 14:55:47;;;;;;;;;;;;;;;;;;5091229;28;19968;-67
2023/07/12 14:58:15;;;;;;;;;;;;;;;;;;5091175;28;19924;-67
2023/07/12 15:00:42;;;;;;;;;;;;;;;;;;5091100;28;19924;-68
2023/07/12 15:03:16;;;;;;;;;;;;;;;;;;5090352;28;20403;-67
2023/07/12 15:05:42;;;;;;;;;;;;;;;;;;5090185;28;19928;-68
2023/07/12 15:08:21;;;;;;;;;;;;;;;;;;5098303;28;20449;-68
2023/07/12 15:10:47;;;;;;;;;;;;;;;;;;5094909;28;20165;-67
2023/07/12 15:13:15;;;;;;;;;;;;;;;;;;5089894;28;20235;-67
2023/07/12 15:15:42;;;;;;;;;;;;;;;;;;5091003;28;20332;-68
2023/07/12 15:18:11;;;;;;;;;;;;;;;;;;5090276;28;19924;-68
2023/07/12 15:20:40;;;;;;;;;;;;;;;;;;5089205;28;19924;-69
2023/07/12 15:23:12;;;;;;;;;;;;;;;;;;5090652;28;19924;-67
2023/07/12 15:25:39;;;;;;;;;;;;;;;;;;5087684;28;19924;-65
2023/07/12 15:28:07;;;;;;;;;;;;;;;;;;5083652;28;19924;-66
2023/07/12 15:30:35;;;;;;;;;;;;;;;;;;5088299;28;19932;-66
2023/07/12 15:33:03;;;;;;;;;;;;;;;;;;5083325;28;19931;-66
2023/07/12 15:35:30;;;;;;;;;;;;;;;;;;5086049;28;20300;-65
2023/07/12 15:37:57;;;;;;;;;;;;;;;;;;5079458;28;20294;-65
2023/07/12 15:40:45;;;;;;;;;;;;;;;;;;5087877;28;19924;-66
2023/07/12 15:43:11;;;;;;;;;;;;;;;;;;5089658;28;20296;-65
2023/07/12 15:45:39;;;;;;;;;;;;;;;;;;5092276;22;19925;-71
2023/07/12 15:48:10;;;;;;;;;;;;;;;;;;5070165;28;19928;-70
2023/07/12 15:50:37;;;;;;;;;;;;;;;;;;5069506;28;20356;-70
2023/07/12 15:53:05;;;;;;;;;;;;;;;;;;5069677;28;19931;-70
2023/07/12 15:55:32;;;;;;;;;;;;;;;;;;5070036;28;19982;-70
2023/07/12 15:57:58;;;;;;;;;;;;;;;;;;5070410;28;20288;-70
2023/07/12 16:00:25;;;;;;;;;;;;;;;;;;5070375;28;19931;-70
2023/07/12 16:02:53;;;;;;;;;;;;;;;;;;5066294;28;20335;-70
2023/07/12 16:05:19;;;;;;;;;;;;;;;;;;5069364;28;19948;-70
2023/07/12 16:07:46;;;;;;;;;;;;;;;;;;5069662;28;19930;-71
2023/07/12 16:10:13;;;;;;;;;;;;;;;;;;5069503;28;19977;-71
2023/07/12 16:12:40;;;;;;;;;;;;;;;;;;5069423;28;19931;-70
2023/07/12 16:15:13;;;;;;;;;;;;;;;;;;5069916;28;20393;-71
2023/07/12 16:17:40;;;;;;;;;;;;;;;;;;5069766;28;20011;-70
2023/07/12 16:20:09;;;;;;;;;;;;;;;;;;5072724;28;20322;-70
2023/07/12 16:22:35;;;;;;;;;;;;;;;;;;5073383;28;19939;-70
2023/07/12 16:25:02;;;;;;;;;;;;;;;;;;5073155;28;19971;-70
2023/07/12 16:27:29;;;;;;;;;;;;;;;;;;5073571;28;20344;-70
2023/07/12 16:29:55;;;;;;;;;;;;;;;;;;5073472;28;19934;-70
2023/07/12 16:32:21;;;;;;;;;;;;;;;;;;5072867;28;19924;-70
2023/07/12 16:34:48;;;;;;;;;;;;;;;;;;5071325;28;19982;-70
2023/07/12 16:37:17;;;;;;;;;;;;;;;;;;5073398;28;19956;-70
2023/07/12 16:39:44;;;;;;;;;;;;;;;;;;5072327;28;19947;-70
2023/07/12 16:42:26;;;;;;;;;;;;;;;;;;5073523;28;19924;-70
2023/07/12 16:44:53;;;;;;;;;;;;;;;;;;5076221;28;19924;-70
2023/07/12 16:47:19;;;;;;;;;;;;;;;;;;5093221;28;19927;-70
2023/07/12 16:49:46;;;;;;;;;;;;;;;;;;5092562;28;19934;-69
2023/07/12 16:52:13;;;;;;;;;;;;;;;;;;5093364;28;19924;-71